Terminal Aerodrome Forecast
Issued by NWS Wilmington, NC

Home | Current Version | Previous Version | Text Only | Print | Product List | Glossary On
Versions: 1 2 3 4 5 6 7 8 9 10 11 12 13 14 15 16 17 18
568
FTUS42 KILM 190520
TAFLBT
TAF
KLBT 190520Z 1906/2006 03005KT P6SM SKC
      TEMPO 1910/1912 4SM BR
     FM191300 02005KT P6SM FEW250=

USA.gov is the U.S. government's official web portal to all federal, state and local government web resources and services.